Time;durP1;ratioP1;P1;durP2;ratioP2;P2;SDS_P1;SDS_P2;PMS_P1;PMS_P2;Temp;Humidity;BMP_temperature;BMP_pressure;BME280_temperature;BME280_humidity;BME280_pressure;Samples;Min_cycle;Max_cycle;Signal;HPM_P1;HPM_P2
2023/05/20 00:02:20;;;;;;;;;26.75;18.25;;;;;17.75;45.14;101437.47;4995283;28;45339;-62
2023/05/20 00:04:45;;;;;;;;;22.50;19.00;;;;;17.72;45.26;101429.59;4977056;28;45343;-62
2023/05/20 00:07:11;;;;;;;;;23.00;18.00;;;;;17.70;45.26;101431.78;4994994;28;46071;-61
2023/05/20 00:09:38;;;;;;;;;16.25;15.25;;;;;17.60;45.10;101435.19;4994301;28;45444;-62
2023/05/20 00:12:04;;;;;;;;;18.00;17.00;;;;;17.70;45.25;101437.34;4994937;28;45551;-60
2023/05/20 00:14:29;;;;;;;;;18.60;16.00;;;;;17.67;45.49;101434.22;5010073;28;45438;-62
2023/05/20 00:16:55;;;;;;;;;17.50;14.00;;;;;17.57;45.41;101427.31;4994327;28;46442;-62
2023/05/20 00:19:20;;;;;;;;;20.25;14.75;;;;;17.55;45.57;101439.78;4976813;28;45355;-62
2023/05/20 00:21:46;;;;;;;;;19.00;16.50;;;;;17.53;45.65;101445.56;4989865;28;45501;-62
2023/05/20 00:24:11;;;;;;;;;17.75;16.50;;;;;17.48;45.76;101428.78;4971409;28;45222;-62
2023/05/20 00:26:37;;;;;;;;;13.75;13.75;;;;;17.42;45.95;101443.63;4967778;28;46748;-62
2023/05/20 00:29:02;;;;;;;;;15.75;14.50;;;;;17.39;45.66;101431.06;4975107;28;45436;-61
2023/05/20 00:31:27;;;;;;;;;17.50;14.50;;;;;17.41;46.01;101428.94;4974620;28;45923;-62
2023/05/20 00:33:53;;;;;;;;;14.25;12.75;;;;;17.30;46.43;101432.53;4974377;28;45613;-62
2023/05/20 00:36:18;;;;;;;;;18.75;16.75;;;;;17.37;46.21;101437.94;4973514;28;46032;-62
2023/05/20 00:38:44;;;;;;;;;11.75;9.00;;;;;17.39;45.98;101438.56;4975179;28;45309;-62
2023/05/20 00:41:09;;;;;;;;;13.50;12.50;;;;;17.37;46.03;101433.25;4970730;28;45364;-62
2023/05/20 00:43:35;;;;;;;;;16.25;16.25;;;;;17.39;46.03;101441.34;4975047;28;45340;-62
2023/05/20 00:46:00;;;;;;;;;18.50;14.50;;;;;17.45;45.76;101420.97;4974758;28;46015;-62
2023/05/20 00:48:28;;;;;;;;;21.00;15.00;;;;;17.47;45.44;101424.34;4994346;28;45321;-62
2023/05/20 00:50:53;;;;;;;;;16.60;16.60;;;;;17.43;45.92;101410.09;4960684;28;45400;-61
2023/05/20 00:53:20;;;;;;;;;12.50;12.25;;;;;17.42;45.95;101411.19;5009765;28;45400;-61
2023/05/20 00:55:45;;;;;;;;;12.80;12.80;;;;;17.41;45.73;101401.19;5009053;28;46527;-62
2023/05/20 00:58:11;;;;;;;;;21.00;17.25;;;;;17.48;45.64;101418.56;4994106;28;45269;-62
2023/05/20 01:00:36;;;;;;;;;14.25;13.50;;;;;17.41;45.75;101406.72;4994497;28;45296;-62
2023/05/20 01:03:01;;;;;;;;;16.75;12.50;;;;;17.44;45.45;101413.69;4960995;28;45531;-62
2023/05/20 01:05:27;;;;;;;;;23.25;16.50;;;;;17.24;46.00;101383.56;5009203;28;46162;-63
2023/05/20 01:07:52;;;;;;;;;13.75;12.75;;;;;17.28;46.13;101405.03;4994469;28;45369;-62
2023/05/20 01:10:18;;;;;;;;;11.25;9.75;;;;;17.31;45.95;101407.34;4994344;28;45345;-62
2023/05/20 01:12:53;;;;;;;;;16.50;13.50;;;;;17.29;45.90;101401.16;4993518;28;45258;-61
2023/05/20 01:15:18;;;;;;;;;13.00;13.00;;;;;17.35;45.85;101393.81;5009328;28;46264;-61
2023/05/20 01:17:45;;;;;;;;;17.25;13.50;;;;;17.27;45.84;101389.47;4995395;28;45406;-61
2023/05/20 01:20:13;;;;;;;;;18.00;15.20;;;;;17.17;46.33;101400.31;4997763;28;45340;-63
2023/05/20 01:22:53;;;;;;;;;13.60;13.40;;;;;17.20;46.11;101405.41;4980045;28;45427;-62
2023/05/20 01:25:19;;;;;;;;;14.40;12.20;;;;;17.19;46.18;101399.00;5012504;28;46255;-63
2023/05/20 01:27:46;;;;;;;;;14.25;13.25;;;;;17.18;45.99;101405.63;4997420;28;45422;-62
2023/05/20 01:30:11;;;;;;;;;12.60;11.60;;;;;17.24;46.18;101394.66;4979722;28;45392;-62
2023/05/20 01:32:47;;;;;;;;;12.75;11.75;;;;;17.24;45.76;101383.56;5012775;28;45662;-62
2023/05/20 01:35:13;;;;;;;;;22.00;15.40;;;;;17.17;45.90;101394.78;4997159;28;46102;-62
2023/05/20 01:37:39;;;;;;;;;16.20;15.00;;;;;17.20;46.04;101399.84;4979668;28;45545;-62
2023/05/20 01:40:07;;;;;;;;;15.50;15.00;;;;;16.97;46.55;101378.47;4979683;28;45442;-61
2023/05/20 01:42:32;;;;;;;;;11.40;11.20;;;;;16.94;46.74;101393.66;4979605;28;45442;-62
2023/05/20 01:44:58;;;;;;;;;19.25;14.75;;;;;16.92;46.99;101384.72;4979350;28;46268;-62
2023/05/20 01:47:23;;;;;;;;;24.25;20.00;;;;;16.91;46.94;101378.31;4997245;28;45563;-61
2023/05/20 01:49:51;;;;;;;;;19.50;18.00;;;;;17.03;46.51;101377.53;4996961;28;45174;-62
2023/05/20 01:52:17;;;;;;;;;48.40;37.00;;;;;17.09;46.41;101378.50;4997291;28;45388;-61
2023/05/20 01:54:49;;;;;;;;;22.25;17.25;;;;;16.96;46.42;101363.75;4996650;28;46572;-61
2023/05/20 01:57:16;;;;;;;;;16.40;16.40;;;;;17.04;46.62;101373.69;4996981;28;45945;-61
2023/05/20 01:59:41;;;;;;;;;13.80;13.00;;;;;17.05;46.44;101373.44;4997161;28;45341;-61
2023/05/20 02:02:06;;;;;;;;;15.25;15.00;;;;;16.88;46.57;101345.56;4996660;28;45344;-62
2023/05/20 02:04:32;;;;;;;;;14.00;14.00;;;;;16.98;46.82;101372.69;4996727;28;45460;-62
2023/05/20 02:06:57;;;;;;;;;15.50;14.25;;;;;16.97;46.84;101376.50;4974158;28;45389;-62
2023/05/20 02:09:23;;;;;;;;;17.50;14.25;;;;;16.88;47.26;101370.50;5016797;28;45415;-61
2023/05/20 02:11:48;;;;;;;;;13.25;12.00;;;;;16.80;47.40;101371.69;5016635;28;45743;-62
2023/05/20 02:14:14;;;;;;;;;16.75;14.50;;;;;16.79;47.46;101361.69;5015143;28;48361;-62
2023/05/20 02:16:40;;;;;;;;;17.25;17.25;;;;;16.73;47.43;101364.56;5016626;28;45332;-60
2023/05/20 02:19:11;;;;;;;;;22.50;17.75;;;;;16.73;47.49;101359.00;4981905;28;45404;-60
2023/05/20 02:21:38;;;;;;;;;20.40;17.00;;;;;16.73;47.80;101357.09;5016404;28;45273;-60
2023/05/20 02:24:04;;;;;;;;;17.80;12.80;;;;;16.69;47.77;101364.19;5014882;28;46823;-60
2023/05/20 02:26:29;;;;;;;;;17.00;15.00;;;;;16.74;47.62;101369.00;5031313;28;45406;-61
2023/05/20 02:28:55;;;;;;;;;21.00;16.00;;;;;16.69;47.84;101363.38;5016431;28;45361;-60
2023/05/20 02:31:21;;;;;;;;;13.75;12.25;;;;;16.72;47.56;101354.56;5016529;28;45417;-61
2023/05/20 02:33:47;;;;;;;;;18.20;15.80;;;;;16.64;48.35;101364.91;4998299;28;46202;-62
2023/05/20 02:36:12;;;;;;;;;14.25;14.25;;;;;16.59;48.11;101361.16;5016531;28;45352;-60
2023/05/20 02:38:38;;;;;;;;;18.00;15.00;;;;;16.67;48.02;101366.38;5016656;28;45318;-60
2023/05/20 02:41:03;;;;;;;;;16.00;12.50;;;;;16.65;48.15;101365.75;5016493;28;45325;-61
2023/05/20 02:43:30;;;;;;;;;19.75;16.00;;;;;16.59;48.32;101355.63;5015795;28;46248;-62
2023/05/20 02:45:56;;;;;;;;;15.80;12.00;;;;;16.63;47.94;101354.91;5015943;28;45392;-61
2023/05/20 02:48:21;;;;;;;;;15.50;13.00;;;;;16.61;48.29;101356.22;5031480;28;45420;-61
2023/05/20 02:50:47;;;;;;;;;14.75;14.25;;;;;16.60;47.98;101347.06;5016427;28;45535;-61
2023/05/20 02:53:12;;;;;;;;;19.75;18.25;;;;;16.46;48.51;101328.97;5016149;28;45691;-61
2023/05/20 02:55:39;;;;;;;;;17.25;14.25;;;;;16.50;48.66;101347.63;5015945;28;45283;-62
2023/05/20 02:58:04;;;;;;;;;21.40;13.20;;;;;16.51;48.52;101345.72;5016025;28;45466;-61
2023/05/20 03:00:30;;;;;;;;;15.75;14.25;;;;;16.49;48.84;101345.13;5016254;28;45573;-62
2023/05/20 03:02:56;;;;;;;;;18.50;17.75;;;;;16.55;48.40;101343.31;4997695;28;46247;-65
2023/05/20 03:05:21;;;;;;;;;33.25;24.75;;;;;16.61;48.31;101347.91;5011210;28;45394;-62
2023/05/20 03:07:47;;;;;;;;;18.75;16.50;;;;;16.57;48.32;101336.47;5010853;28;45380;-62
2023/05/20 03:10:13;;;;;;;;;16.75;16.75;;;;;16.51;48.66;101337.41;4996171;28;45464;-61
2023/05/20 03:12:39;;;;;;;;;22.75;21.00;;;;;16.58;48.66;101343.69;4995752;28;45650;-62
2023/05/20 03:15:05;;;;;;;;;17.00;15.25;;;;;16.44;48.56;101334.72;4995757;28;45205;-63
2023/05/20 03:17:30;;;;;;;;;20.60;18.00;;;;;16.49;48.80;101336.81;4995809;28;45291;-60
2023/05/20 03:19:56;;;;;;;;;22.25;18.75;;;;;16.46;48.79;101337.28;4996124;28;45317;-61
2023/05/20 03:22:21;;;;;;;;;22.75;20.50;;;;;16.54;48.82;101336.91;4977774;28;47409;-61
2023/05/20 03:24:47;;;;;;;;;23.00;19.00;;;;;16.51;48.88;101334.63;4995449;28;45262;-59
2023/05/20 03:27:12;;;;;;;;;18.25;15.50;;;;;16.48;48.95;101332.31;5010476;28;45292;-61
2023/05/20 03:29:38;;;;;;;;;17.75;16.00;;;;;16.43;49.10;101335.81;4977694;28;45227;-62
2023/05/20 03:32:03;;;;;;;;;21.25;19.50;;;;;16.39;49.03;101340.16;4995164;28;46929;-61
2023/05/20 03:34:29;;;;;;;;;23.00;19.50;;;;;16.40;49.32;101328.81;4995092;28;45341;-61
2023/05/20 03:36:56;;;;;;;;;24.00;20.50;;;;;16.42;49.18;101325.81;4995154;28;45371;-62
2023/05/20 03:39:21;;;;;;;;;20.20;19.60;;;;;16.28;48.95;101308.59;4994605;28;45525;-61
2023/05/20 03:41:47;;;;;;;;;17.00;15.00;;;;;16.36;49.62;101322.09;4994796;28;46269;-62
2023/05/20 03:44:12;;;;;;;;;18.75;17.75;;;;;16.24;49.94;101324.78;4995264;28;45258;-62
2023/05/20 03:46:39;;;;;;;;;22.60;20.00;;;;;16.35;49.60;101327.84;4995064;28;45387;-62
2023/05/20 03:49:05;;;;;;;;;19.75;16.75;;;;;16.36;49.21;101313.78;4995442;28;45337;-59
2023/05/20 03:51:30;;;;;;;;;21.50;20.50;;;;;16.43;49.05;101319.19;4995142;28;45722;-62
2023/05/20 03:53:55;;;;;;;;;20.75;18.25;;;;;16.40;49.41;101303.88;4995233;28;45337;-61
2023/05/20 03:56:21;;;;;;;;;22.75;18.00;;;;;16.29;49.33;101292.78;4995080;28;45380;-62
2023/05/20 03:58:47;;;;;;;;;21.50;20.50;;;;;16.48;49.19;101322.09;4995064;28;45569;-61
2023/05/20 04:01:13;;;;;;;;;26.00;24.00;;;;;16.43;49.63;101312.81;4994955;28;46422;-61
2023/05/20 04:03:40;;;;;;;;;21.40;17.80;;;;;16.37;49.53;101321.00;4994902;28;45255;-61
2023/05/20 04:06:06;;;;;;;;;22.40;21.00;;;;;16.24;49.52;101299.88;4994831;28;45429;-62
2023/05/20 04:08:31;;;;;;;;;25.75;22.25;;;;;16.31;49.71;101316.41;4995146;28;45556;-60
2023/05/20 04:10:57;;;;;;;;;22.25;19.75;;;;;16.33;49.64;101308.69;4994868;28;45583;-61
2023/05/20 04:13:24;;;;;;;;;22.25;20.25;;;;;16.36;49.79;101312.91;4994707;28;45402;-61
2023/05/20 04:15:51;;;;;;;;;18.60;18.20;;;;;16.32;49.47;101295.09;4995154;28;45375;-60
2023/05/20 04:18:17;;;;;;;;;24.40;21.00;;;;;16.47;49.28;101312.09;4995154;28;45236;-62
2023/05/20 04:20:42;;;;;;;;;17.50;16.00;;;;;16.53;49.32;101313.94;4993445;28;46365;-62
2023/05/20 04:23:07;;;;;;;;;17.00;15.50;;;;;16.53;49.28;101315.84;5009503;28;45392;-61
2023/05/20 04:25:34;;;;;;;;;19.25;17.00;;;;;16.52;49.14;101317.78;4995079;28;45229;-61
2023/05/20 04:28:00;;;;;;;;;26.80;21.80;;;;;16.50;49.18;101308.03;4994714;28;45476;-62
2023/05/20 04:30:25;;;;;;;;;20.75;19.00;;;;;16.38;49.23;101294.13;4976520;28;45407;-62
2023/05/20 04:32:51;;;;;;;;;18.00;17.00;;;;;16.48;49.23;101315.72;4993132;28;45340;-61
2023/05/20 04:35:17;;;;;;;;;19.50;18.25;;;;;16.47;49.19;101306.56;4977115;28;45466;-62
2023/05/20 04:37:50;;;;;;;;;26.50;21.75;;;;;16.51;49.06;101304.16;4994952;28;45371;-60
2023/05/20 04:40:16;;;;;;;;;22.40;20.60;;;;;16.57;48.98;101305.97;4994735;28;46533;-60
2023/05/20 04:42:42;;;;;;;;;26.25;18.50;;;;;16.57;49.11;101311.53;4994460;28;45523;-61
2023/05/20 04:45:08;;;;;;;;;21.40;17.80;;;;;16.35;48.99;101301.00;4994546;28;45312;-63
2023/05/20 04:47:37;;;;;;;;;24.50;19.50;;;;;16.45;49.46;101313.44;4994789;28;45320;-62
2023/05/20 04:50:07;;;;;;;;;23.80;19.60;;;;;16.45;49.19;101305.97;4994280;28;46580;-61
2023/05/20 04:52:33;;;;;;;;;23.80;19.40;;;;;16.44;48.98;101306.19;4998050;28;45365;-61
2023/05/20 04:55:00;;;;;;;;;22.50;20.50;;;;;16.44;49.50;101304.25;4996678;28;45905;-59
2023/05/20 04:57:26;;;;;;;;;24.20;21.20;;;;;16.45;49.16;101310.66;4997717;28;45309;-61
2023/05/20 04:59:51;;;;;;;;;23.75;21.00;;;;;16.45;49.21;101307.88;4997412;28;45602;-61
2023/05/20 05:02:17;;;;;;;;;27.50;20.00;;;;;16.34;49.36;101295.69;4997784;28;45311;-61
2023/05/20 05:04:42;;;;;;;;;21.25;20.00;;;;;16.43;49.28;101304.53;4997867;28;45395;-61
2023/05/20 05:07:08;;;;;;;;;24.25;20.25;;;;;16.34;50.06;101309.56;4993454;28;45375;-61
2023/05/20 05:09:33;;;;;;;;;26.25;22.50;;;;;16.25;49.58;101295.19;4971501;28;46496;-61
2023/05/20 05:11:59;;;;;;;;;24.00;23.00;;;;;16.30;49.90;101302.78;5012314;28;45651;-62
2023/05/20 05:14:24;;;;;;;;;25.75;23.25;;;;;16.27;49.81;101298.56;4995869;28;45400;-62
2023/05/20 05:16:50;;;;;;;;;24.00;24.00;;;;;16.24;49.84;101299.03;4997962;28;45422;-62
2023/05/20 05:19:15;;;;;;;;;23.00;22.25;;;;;16.21;50.38;101307.81;4997246;28;45983;-61
2023/05/20 05:21:40;;;;;;;;;24.00;22.25;;;;;16.23;50.03;101300.13;4997679;28;45458;-62
2023/05/20 05:24:06;;;;;;;;;24.25;24.00;;;;;16.16;50.16;101304.94;4996861;28;45491;-60
2023/05/20 05:26:32;;;;;;;;;20.25;20.00;;;;;16.06;50.30;101291.66;4997392;28;45491;-59
2023/05/20 05:28:57;;;;;;;;;24.25;21.25;;;;;16.09;50.58;101299.47;4996963;28;45355;-61
2023/05/20 05:31:23;;;;;;;;;21.50;18.25;;;;;16.14;50.57;101302.38;4995620;28;45517;-62
2023/05/20 05:33:48;;;;;;;;;21.00;19.75;;;;;16.09;50.35;101289.25;4997232;28;45373;-62
2023/05/20 05:36:15;;;;;;;;;23.75;22.00;;;;;16.15;50.14;101301.31;4997265;28;45414;-62
2023/05/20 05:38:40;;;;;;;;;32.80;24.00;;;;;16.13;50.28;101309.00;4996708;28;46426;-62
2023/05/20 05:41:06;;;;;;;;;22.75;19.75;;;;;16.20;50.11;101303.34;4996847;28;45965;-60
2023/05/20 05:43:31;;;;;;;;;24.50;23.25;;;;;16.18;50.40;101306.38;4996953;28;45214;-61
2023/05/20 05:45:57;;;;;;;;;25.25;20.25;;;;;16.16;50.11;101308.53;4997377;28;45786;-61
2023/05/20 05:48:22;;;;;;;;;26.50;25.75;;;;;16.23;50.03;101302.91;4996646;28;46422;-60
2023/05/20 05:50:48;;;;;;;;;25.25;22.50;;;;;16.20;50.27;101304.22;4979325;28;45396;-62
2023/05/20 05:53:14;;;;;;;;;28.25;21.50;;;;;16.18;49.99;101305.53;4997295;28;45346;-62
2023/05/20 05:55:39;;;;;;;;;26.60;25.60;;;;;16.22;50.47;101304.00;4996995;28;45400;-59
2023/05/20 05:58:05;;;;;;;;;26.50;23.50;;;;;16.18;49.98;101288.91;4996549;28;46594;-61
2023/05/20 06:00:30;;;;;;;;;22.00;21.00;;;;;16.26;50.00;101302.41;4996965;28;45285;-61
2023/05/20 06:02:55;;;;;;;;;25.75;24.25;;;;;16.30;50.22;101297.25;4996377;28;45458;-61
2023/05/20 06:05:21;;;;;;;;;26.25;22.50;;;;;16.26;50.24;101288.56;4996727;28;45289;-60
2023/05/20 06:07:46;;;;;;;;;29.75;22.75;;;;;16.23;49.90;101273.25;4986808;28;46080;-61
2023/05/20 06:10:12;;;;;;;;;31.75;22.00;;;;;16.39;50.11;101291.13;4994372;28;45331;-61
2023/05/20 06:12:37;;;;;;;;;21.25;20.25;;;;;16.44;49.58;101297.88;4996012;28;45356;-61
2023/05/20 06:15:03;;;;;;;;;24.00;21.50;;;;;16.48;49.64;101286.09;4996735;28;45625;-62
2023/05/20 06:17:29;;;;;;;;;21.00;21.00;;;;;16.48;49.67;101282.47;4996422;28;46551;-60
2023/05/20 06:19:54;;;;;;;;;28.75;24.00;;;;;16.51;49.90;101288.41;5011494;28;45411;-62
2023/05/20 06:22:20;;;;;;;;;24.50;20.00;;;;;16.46;49.63;101287.41;4996730;28;45292;-61
2023/05/20 06:24:45;;;;;;;;;22.50;21.25;;;;;16.48;49.74;101288.00;4996223;28;45304;-60
2023/05/20 06:27:11;;;;;;;;;28.25;24.50;;;;;16.39;49.86;101271.72;4996175;28;46329;-61
2023/05/20 06:29:36;;;;;;;;;22.75;21.75;;;;;16.47;49.76;101291.84;4996262;28;45347;-61
2023/05/20 06:32:02;;;;;;;;;25.75;23.75;;;;;16.53;49.62;101297.31;4996370;28;45333;-61
2023/05/20 06:34:27;;;;;;;;;24.50;22.00;;;;;16.62;49.23;101283.09;5011741;28;45696;-61
2023/05/20 06:36:53;;;;;;;;;27.25;21.75;;;;;16.57;49.47;101285.72;4996230;28;46244;-62
2023/05/20 06:39:18;;;;;;;;;23.50;21.50;;;;;16.57;49.24;101277.41;4996321;28;45272;-62
2023/05/20 06:41:44;;;;;;;;;23.00;20.50;;;;;16.58;49.45;101273.56;4996066;28;45456;-61
2023/05/20 06:44:10;;;;;;;;;22.00;21.80;;;;;16.65;49.35;101277.09;4996572;28;45520;-62
2023/05/20 06:46:35;;;;;;;;;33.00;25.75;;;;;16.66;49.19;101262.97;4996472;28;46051;-61
2023/05/20 06:49:01;;;;;;;;;22.75;19.75;;;;;16.83;48.88;101267.81;4994641;28;45295;-61
2023/05/20 06:51:27;;;;;;;;;23.40;20.80;;;;;16.89;48.82;101264.06;5011431;28;45512;-62
2023/05/20 06:53:52;;;;;;;;;27.25;22.50;;;;;16.80;48.68;101269.13;4996295;28;45403;-61
2023/05/20 06:56:18;;;;;;;;;27.50;24.25;;;;;16.79;49.16;101270.22;4995948;28;45382;-61
2023/05/20 06:58:43;;;;;;;;;26.00;23.25;;;;;16.79;49.04;101261.91;4996028;28;45442;-60
2023/05/20 07:01:09;;;;;;;;;27.50;22.25;;;;;16.82;49.03;101268.91;4996073;28;45339;-61
2023/05/20 07:03:35;;;;;;;;;25.50;24.00;;;;;16.80;49.03;101263.59;4996124;28;45298;-62
2023/05/20 07:06:00;;;;;;;;;22.50;20.25;;;;;16.84;49.11;101269.50;4996011;28;46323;-60
2023/05/20 07:08:26;;;;;;;;;24.00;20.75;;;;;16.96;48.87;101274.19;4995371;28;45225;-62
2023/05/20 07:10:54;;;;;;;;;24.00;22.00;;;;;16.99;48.58;101266.22;4995912;28;45272;-60
2023/05/20 07:13:22;;;;;;;;;24.80;22.00;;;;;17.13;48.17;101277.09;5010844;28;45550;-64
2023/05/20 07:15:48;;;;;;;;;24.00;22.40;;;;;17.19;48.18;101273.34;4995027;28;45379;-62
2023/05/20 07:18:14;;;;;;;;;26.00;22.25;;;;;17.21;48.13;101260.06;4995813;28;45467;-60
2023/05/20 07:20:39;;;;;;;;;24.50;23.25;;;;;17.26;47.99;101265.75;5010764;28;45398;-59
2023/05/20 07:23:05;;;;;;;;;22.50;21.25;;;;;17.22;48.01;101255.38;4995618;28;45542;-58
2023/05/20 07:25:30;;;;;;;;;23.25;21.00;;;;;17.23;48.12;101259.84;4967601;28;45996;-60
2023/05/20 07:27:56;;;;;;;;;21.75;19.00;;;;;17.24;48.31;101265.13;4995694;28;45340;-60
2023/05/20 07:30:21;;;;;;;;;24.50;20.50;;;;;17.28;48.01;101259.97;4995509;28;45257;-59
2023/05/20 07:32:47;;;;;;;;;24.75;23.00;;;;;17.26;48.23;101262.97;4995690;28;45505;-59
2023/05/20 07:35:21;;;;;;;;;21.40;21.00;;;;;17.18;48.22;101258.63;5108389;27;45324;-60
2023/05/20 07:37:46;;;;;;;;;25.00;22.50;;;;;17.42;47.68;101255.81;5091828;27;45376;-61
2023/05/20 07:40:13;;;;;;;;;25.75;22.50;;;;;17.43;47.80;101253.88;5091805;27;45399;-60
2023/05/20 07:42:38;;;;;;;;;26.60;26.40;;;;;17.41;47.86;101244.94;5108021;27;45437;-59
2023/05/20 07:45:05;;;;;;;;;27.50;25.25;;;;;17.61;47.54;101250.09;5091151;27;45330;-56
2023/05/20 07:47:31;;;;;;;;;23.20;23.20;;;;;17.67;47.06;101243.53;5090209;27;45292;-61
2023/05/20 07:49:57;;;;;;;;;22.20;21.00;;;;;17.60;46.93;101249.22;5091528;27;45354;-61
2023/05/20 07:52:22;;;;;;;;;26.00;24.25;;;;;17.63;47.22;101247.03;5080925;27;45604;-61
2023/05/20 07:54:48;;;;;;;;;25.00;22.50;;;;;17.63;47.21;101236.78;5043834;27;47600;-61
2023/05/20 07:57:13;;;;;;;;;20.50;18.00;;;;;17.73;46.97;101233.38;5049207;28;45477;-60
2023/05/20 07:59:39;;;;;;;;;24.50;19.00;;;;;17.84;46.69;101234.41;5051149;28;45443;-60
2023/05/20 08:02:05;;;;;;;;;25.00;23.40;;;;;17.93;46.86;101232.06;5030680;27;45494;-62
2023/05/20 08:04:31;;;;;;;;;24.50;22.00;;;;;17.99;46.46;101237.44;5057098;27;47172;-62
2023/05/20 08:06:56;;;;;;;;;19.00;19.00;;;;;17.98;46.39;101230.22;5061730;28;45428;-60
2023/05/20 08:09:22;;;;;;;;;26.25;23.25;;;;;18.05;46.21;101237.56;5067656;27;45471;-61
2023/05/20 08:11:47;;;;;;;;;19.00;17.75;;;;;18.11;46.27;101234.66;5067659;27;45539;-62
2023/05/20 08:14:13;;;;;;;;;19.25;18.00;;;;;18.21;46.18;101230.38;5059329;27;48411;-61
2023/05/20 08:16:39;;;;;;;;;39.00;27.25;;;;;18.26;46.00;101225.72;5068768;27;45742;-61
2023/05/20 08:19:04;;;;;;;;;18.75;17.50;;;;;18.33;45.75;101224.72;5069494;28;45452;-62
2023/05/20 08:21:30;;;;;;;;;23.75;21.50;;;;;18.35;45.79;101230.88;5070005;27;45359;-61
2023/05/20 08:23:56;;;;;;;;;20.75;19.25;;;;;18.29;45.88;101228.00;5069577;27;45440;-62
2023/05/20 08:26:21;;;;;;;;;19.40;18.40;;;;;18.24;45.70;101214.03;5047557;27;45412;-62
2023/05/20 08:28:47;;;;;;;;;23.25;19.75;;;;;18.23;46.00;101219.84;5068959;27;45344;-61
2023/05/20 08:31:13;;;;;;;;;17.00;13.75;;;;;18.23;45.89;101219.84;5069906;28;45474;-61
2023/05/20 08:33:38;;;;;;;;;22.25;20.50;;;;;18.25;46.07;101210.16;5084605;27;45558;-59
2023/05/20 08:36:05;;;;;;;;;22.50;19.25;;;;;18.33;45.79;101219.16;5069320;28;45428;-61
2023/05/20 08:38:30;;;;;;;;;18.20;18.20;;;;;18.33;45.75;101216.38;5069240;28;45412;-62
2023/05/20 08:40:56;;;;;;;;;17.50;17.50;;;;;18.37;45.94;101220.34;5072074;27;45695;-62
2023/05/20 08:43:22;;;;;;;;;22.00;19.50;;;;;18.32;45.60;101193.31;5068655;28;46785;-60
2023/05/20 08:45:48;;;;;;;;;21.00;20.40;;;;;18.48;45.64;101205.53;5059342;28;45444;-62
2023/05/20 08:48:15;;;;;;;;;21.75;20.50;;;;;18.45;45.70;101188.53;5055646;28;45425;-62
2023/05/20 08:50:41;;;;;;;;;21.00;20.40;;;;;18.51;45.68;101191.13;5070961;27;45707;-61
2023/05/20 08:53:06;;;;;;;;;20.75;19.50;;;;;18.53;45.69;101183.34;5063500;28;47824;-62
2023/05/20 08:55:53;;;;;;;;;25.75;20.75;;;;;18.52;45.41;101178.91;5075498;28;45630;-62
2023/05/20 08:58:20;;;;;;;;;19.20;18.20;;;;;18.65;45.26;101196.31;5075784;27;45363;-61
2023/05/20 09:00:46;;;;;;;;;16.80;13.60;;;;;18.60;45.25;101190.66;5086055;27;45408;-61
2023/05/20 09:03:12;;;;;;;;;21.25;21.00;;;;;18.59;45.16;101181.50;5028714;28;46739;-62
2023/05/20 09:05:37;;;;;;;;;18.50;17.50;;;;;18.74;45.16;101194.78;5038051;28;45435;-63
2023/05/20 09:08:11;;;;;;;;;18.25;16.50;;;;;18.85;45.41;101190.22;5035540;28;45378;-62
2023/05/20 09:10:38;;;;;;;;;18.40;16.20;;;;;18.89;44.73;101171.06;5036036;28;45779;-61
2023/05/20 09:13:04;;;;;;;;;18.40;16.60;;;;;19.02;44.91;101178.19;5034689;28;46886;-61
2023/05/20 09:15:31;;;;;;;;;17.20;15.20;;;;;19.09;44.25;101185.28;5033975;28;45384;-61
2023/05/20 09:17:59;;;;;;;;;16.20;13.60;;;;;19.04;44.62;101171.28;5053608;28;45294;-61
2023/05/20 09:20:25;;;;;;;;;15.00;14.00;;;;;19.04;44.40;101170.44;5055009;28;45882;-60
2023/05/20 09:22:54;;;;;;;;;13.50;13.25;;;;;19.22;44.10;101181.25;5071275;28;46377;-61
2023/05/20 09:25:20;;;;;;;;;14.40;13.20;;;;;19.33;44.01;101179.41;5061527;28;45939;-62
2023/05/20 09:27:46;;;;;;;;;16.20;15.20;;;;;19.39;43.11;101179.47;5034790;28;45217;-62
2023/05/20 09:30:12;;;;;;;;;16.75;14.00;;;;;19.34;43.07;101164.44;5034742;28;45567;-61
2023/05/20 09:32:38;;;;;;;;;8.80;8.80;;;;;19.31;42.83;101167.72;5034828;28;46192;-62
2023/05/20 09:35:05;;;;;;;;;15.50;15.50;;;;;19.40;43.08;101164.47;5034571;28;45463;-62
2023/05/20 09:37:30;;;;;;;;;11.80;11.00;;;;;19.41;42.86;101153.06;5034086;28;45461;-61
2023/05/20 09:39:59;;;;;;;;;11.00;11.00;;;;;19.55;42.63;101152.66;5049867;28;45386;-61
2023/05/20 09:42:27;;;;;;;;;12.80;12.00;;;;;19.66;42.79;101157.22;5033855;28;46169;-62
2023/05/20 09:44:53;;;;;;;;;12.00;11.00;;;;;19.73;42.49;101141.16;5033037;28;45466;-60
2023/05/20 09:47:19;;;;;;;;;13.25;9.75;;;;;19.81;42.20;101139.84;5035802;28;45398;-57
2023/05/20 09:49:46;;;;;;;;;13.75;12.00;;;;;19.92;42.38;101144.38;5035241;28;45401;-63
2023/05/20 09:52:12;;;;;;;;;10.20;9.00;;;;;19.90;41.96;101137.38;4995474;28;45967;-60
2023/05/20 09:54:38;;;;;;;;;15.80;13.20;;;;;20.00;41.67;101145.88;5051904;28;45302;-59
2023/05/20 09:57:04;;;;;;;;;15.00;11.25;;;;;20.05;41.40;101142.28;5053794;28;45331;-58
2023/05/20 09:59:30;;;;;;;;;12.75;12.75;;;;;20.06;41.31;101145.91;5071346;28;45564;-61
2023/05/20 10:01:55;;;;;;;;;13.60;12.60;;;;;20.06;41.59;101129.19;5087360;27;45752;-60
2023/05/20 10:04:21;;;;;;;;;10.75;10.00;;;;;20.13;41.66;101125.06;5036854;28;46204;-63
2023/05/20 10:07:04;;;;;;;;;13.75;12.50;;;;;20.20;41.71;101122.06;5069272;27;45466;-61
2023/05/20 10:09:48;;;;;;;;;11.80;11.60;;;;;20.27;41.51;101127.41;5054302;28;45377;-61
2023/05/20 10:12:32;;;;;;;;;11.80;10.00;;;;;20.31;41.41;101126.59;5034031;28;45430;-60
2023/05/20 10:15:36;;;;;;;;;16.00;13.00;;;;;20.37;41.47;101112.66;5034971;28;45285;-60
2023/05/20 10:18:22;;;;;;;;;10.80;9.40;;;;;20.55;41.58;101122.56;5010190;28;45425;-60
2023/05/20 10:20:48;;;;;;;;;11.60;11.20;;;;;20.67;40.93;101116.75;5035027;28;45624;-59
2023/05/20 10:23:26;;;;;;;;;9.80;9.00;;;;;20.64;39.59;101120.91;5033429;28;48006;-61
2023/05/20 10:25:52;;;;;;;;;9.40;8.40;;;;;20.64;39.70;101101.41;5034205;28;45382;-60
2023/05/20 10:28:29;;;;;;;;;13.00;11.00;;;;;20.77;39.71;101118.75;5050086;28;45444;-60
2023/05/20 10:30:54;;;;;;;;;12.00;10.00;;;;;20.75;39.02;101107.03;5034254;28;45617;-60
2023/05/20 10:33:20;;;;;;;;;11.00;10.00;;;;;20.75;39.88;101116.22;5033875;28;45497;-61
2023/05/20 10:35:51;;;;;;;;;7.50;7.50;;;;;20.81;39.31;101108.75;5034298;28;45564;-60
2023/05/20 10:38:17;;;;;;;;;9.60;9.60;;;;;20.85;39.02;101109.88;5034507;28;45608;-58
2023/05/20 10:40:42;;;;;;;;;11.00;8.75;;;;;20.94;39.00;101096.25;5033329;28;45479;-56
2023/05/20 10:43:27;;;;;;;;;11.25;10.00;;;;;21.07;39.52;101108.88;5032366;28;45778;-60
2023/05/20 10:45:54;;;;;;;;;11.80;8.40;;;;;21.15;37.73;101093.53;5031737;28;45757;-60
2023/05/20 10:48:23;;;;;;;;;9.60;9.00;;;;;21.12;38.24;101083.75;5033967;28;45512;-61
2023/05/20 10:50:48;;;;;;;;;9.20;9.20;;;;;21.23;38.58;101098.56;5049604;28;45355;-61
2023/05/20 10:53:14;;;;;;;;;10.25;9.00;;;;;21.20;38.89;101088.81;5033092;28;46382;-60
2023/05/20 10:55:40;;;;;;;;;8.25;8.25;;;;;21.29;38.30;101091.06;5032352;28;45377;-60
2023/05/20 10:58:06;;;;;;;;;10.40;10.00;;;;;21.28;38.14;101097.75;5033600;28;45369;-60
2023/05/20 11:00:38;;;;;;;;;8.00;7.00;;;;;21.29;38.30;101089.09;5049787;28;45377;-59
2023/05/20 11:03:04;;;;;;;;;11.00;11.00;;;;;21.44;38.16;101079.06;5018638;28;45507;-56
2023/05/20 11:05:30;;;;;;;;;10.80;10.40;;;;;21.52;37.79;101056.19;5048783;28;46057;-55
2023/05/20 11:08:02;;;;;;;;;12.50;11.00;;;;;21.77;37.83;101074.09;5056277;28;45695;-57